Time;durP1;ratioP1;P1;durP2;ratioP2;P2;SDS_P1;SDS_P2;PMS_P1;PMS_P2;Temp;Humidity;BMP_temperature;BMP_pressure;BME280_temperature;BME280_humidity;BME280_pressure;Samples;Min_cycle;Max_cycle;Signal;HPM_P1;HPM_P2
2021/04/17 00:01:09;;;;;;;13.38;7.43;;;;;;;;;;5083689;28;20052;-66
2021/04/17 00:03:35;;;;;;;12.45;7.18;;;;;;;;;;5082868;28;20074;-66
2021/04/17 00:06:01;;;;;;;10.98;7.10;;;;;;;;;;5079623;28;20503;-66
2021/04/17 00:08:27;;;;;;;11.40;7.75;;;;;;;;;;5082343;28;20055;-66
2021/04/17 00:10:54;;;;;;;10.98;6.97;;;;;;;;;;5082360;28;20576;-66
2021/04/17 00:13:20;;;;;;;11.88;6.47;;;;;;;;;;5079971;28;20495;-66
2021/04/17 00:15:47;;;;;;;9.48;5.97;;;;;;;;;;5083872;28;20053;-66
2021/04/17 00:18:13;;;;;;;9.70;6.63;;;;;;;;;;5081005;28;20051;-66
2021/04/17 00:20:39;;;;;;;10.77;6.88;;;;;;;;;;5082295;28;20055;-66
2021/04/17 00:23:05;;;;;;;9.55;6.40;;;;;;;;;;5081348;28;20481;-67
2021/04/17 00:25:31;;;;;;;11.23;5.85;;;;;;;;;;5082998;28;20408;-66
2021/04/17 00:27:57;;;;;;;11.45;6.93;;;;;;;;;;5080005;28;20044;-66
2021/04/17 00:30:24;;;;;;;10.85;6.93;;;;;;;;;;5080594;28;20056;-66
2021/04/17 00:32:50;;;;;;;10.82;6.38;;;;;;;;;;5080217;28;20055;-66
2021/04/17 00:35:17;;;;;;;22.55;9.55;;;;;;;;;;5082302;28;20067;-66
2021/04/17 00:37:43;;;;;;;14.10;8.10;;;;;;;;;;5083291;28;20042;-66
2021/04/17 00:40:10;;;;;;;11.35;6.90;;;;;;;;;;5082206;28;20056;-66
2021/04/17 00:42:36;;;;;;;11.95;7.13;;;;;;;;;;5081896;28;20106;-66
2021/04/17 00:45:03;;;;;;;11.70;7.40;;;;;;;;;;5078939;28;20556;-66
2021/04/17 00:47:29;;;;;;;11.20;6.55;;;;;;;;;;5083157;28;20167;-66
2021/04/17 00:49:55;;;;;;;11.20;6.57;;;;;;;;;;5081337;28;20043;-66
2021/04/17 00:52:21;;;;;;;13.07;7.85;;;;;;;;;;5079773;28;20138;-66
2021/04/17 00:54:47;;;;;;;11.60;7.25;;;;;;;;;;5082176;28;20054;-66
2021/04/17 00:57:13;;;;;;;12.65;7.20;;;;;;;;;;5083376;28;20044;-66
2021/04/17 00:59:39;;;;;;;11.63;7.32;;;;;;;;;;5080897;28;20516;-67
2021/04/17 01:02:06;;;;;;;11.95;7.05;;;;;;;;;;5077482;28;20076;-66
2021/04/17 01:04:34;;;;;;;12.73;7.57;;;;;;;;;;5079935;28;20056;-66
2021/04/17 01:07:06;;;;;;;13.73;7.60;;;;;;;;;;5081899;28;20097;-66
2021/04/17 01:09:34;;;;;;;11.52;7.05;;;;;;;;;;5080172;28;20474;-66
2021/04/17 01:12:03;;;;;;;12.18;7.97;;;;;;;;;;5082027;28;20044;-66
2021/04/17 01:14:31;;;;;;;13.10;7.93;;;;;;;;;;5082497;28;20075;-66
2021/04/17 01:16:58;;;;;;;10.73;7.65;;;;;;;;;;5081606;28;20048;-66
2021/04/17 01:19:32;;;;;;;12.73;8.35;;;;;;;;;;5081413;28;20509;-66
2021/04/17 01:22:01;;;;;;;13.73;7.80;;;;;;;;;;5080314;28;20063;-66
2021/04/17 01:24:28;;;;;;;11.30;6.80;;;;;;;;;;5076472;28;20061;-66
2021/04/17 01:26:55;;;;;;;12.90;8.07;;;;;;;;;;5079286;28;20052;-66
2021/04/17 01:29:21;;;;;;;14.48;7.90;;;;;;;;;;5080363;28;20638;-66
2021/04/17 01:31:47;;;;;;;13.27;7.43;;;;;;;;;;5080479;28;20059;-66
2021/04/17 01:34:13;;;;;;;13.70;8.50;;;;;;;;;;5077881;28;20105;-66
2021/04/17 01:36:40;;;;;;;15.18;8.68;;;;;;;;;;5080414;28;20055;-66
2021/04/17 01:39:07;;;;;;;14.70;8.38;;;;;;;;;;5080231;28;20048;-66
2021/04/17 01:41:36;;;;;;;12.73;7.72;;;;;;;;;;5076289;28;20508;-66
2021/04/17 01:44:05;;;;;;;14.25;8.00;;;;;;;;;;5077824;28;20055;-66
2021/04/17 01:46:34;;;;;;;13.70;8.20;;;;;;;;;;5079900;28;20047;-66
2021/04/17 01:49:03;;;;;;;13.05;8.45;;;;;;;;;;5081108;28;20396;-66
2021/04/17 01:51:29;;;;;;;14.73;8.18;;;;;;;;;;5078255;28;20404;-66
2021/04/17 01:53:57;;;;;;;12.50;7.30;;;;;;;;;;5077979;28;20077;-66
2021/04/17 01:56:24;;;;;;;12.02;7.00;;;;;;;;;;5078459;28;20554;-67
2021/04/17 01:58:50;;;;;;;11.90;6.85;;;;;;;;;;5077435;28;20051;-66
2021/04/17 02:01:19;;;;;;;15.02;8.57;;;;;;;;;;5080293;28;20055;-66
2021/04/17 02:03:45;;;;;;;14.57;8.82;;;;;;;;;;5078969;28;20050;-66
2021/04/17 02:06:11;;;;;;;13.90;7.90;;;;;;;;;;5081035;28;20055;-66
2021/04/17 02:08:38;;;;;;;15.07;8.07;;;;;;;;;;5080468;28;20076;-66
2021/04/17 02:11:04;;;;;;;16.65;8.52;;;;;;;;;;5078780;28;20045;-66
2021/04/17 02:13:32;;;;;;;15.52;8.48;;;;;;;;;;5078439;28;20055;-66
2021/04/17 02:16:03;;;;;;;11.63;7.03;;;;;;;;;;5079289;28;20102;-66
2021/04/17 02:18:34;;;;;;;12.02;7.25;;;;;;;;;;5079366;28;20520;-66
2021/04/17 02:21:04;;;;;;;14.63;8.45;;;;;;;;;;5079449;28;20492;-66
2021/04/17 02:23:31;;;;;;;12.63;7.03;;;;;;;;;;5075826;28;20059;-66
2021/04/17 02:25:57;;;;;;;15.25;8.20;;;;;;;;;;5077386;28;20097;-66
2021/04/17 02:28:24;;;;;;;13.68;8.30;;;;;;;;;;5077013;28;20473;-66
2021/04/17 02:30:50;;;;;;;15.98;9.18;;;;;;;;;;5077886;28;20048;-66
2021/04/17 02:33:16;;;;;;;14.25;8.68;;;;;;;;;;5076845;28;20427;-66
2021/04/17 02:35:43;;;;;;;12.48;8.52;;;;;;;;;;5081914;28;20047;-66
2021/04/17 02:38:10;;;;;;;12.73;8.57;;;;;;;;;;5079985;28;20056;-66
2021/04/17 02:40:36;;;;;;;13.80;8.07;;;;;;;;;;5085751;28;20052;-66
2021/04/17 02:43:02;;;;;;;14.60;9.35;;;;;;;;;;5079514;28;20040;-66
2021/04/17 02:45:28;;;;;;;16.50;8.48;;;;;;;;;;5084806;28;20090;-66
2021/04/17 02:47:54;;;;;;;15.38;8.40;;;;;;;;;;5082353;28;20051;-66
2021/04/17 02:50:20;;;;;;;15.52;8.57;;;;;;;;;;5081543;28;20531;-66
2021/04/17 02:52:48;;;;;;;15.52;8.60;;;;;;;;;;5085292;28;20613;-66
2021/04/17 02:55:15;;;;;;;15.52;8.95;;;;;;;;;;5081369;28;20533;-66
2021/04/17 02:57:41;;;;;;;14.05;8.50;;;;;;;;;;5080369;28;20093;-66
2021/04/17 03:00:08;;;;;;;18.58;9.00;;;;;;;;;;5084208;28;20053;-66
2021/04/17 03:02:34;;;;;;;19.38;9.25;;;;;;;;;;5084608;28;20086;-66
2021/04/17 03:05:01;;;;;;;19.38;10.18;;;;;;;;;;5083135;28;20485;-66
2021/04/17 03:07:27;;;;;;;15.02;8.65;;;;;;;;;;5082983;28;20056;-66
2021/04/17 03:09:53;;;;;;;16.27;9.88;;;;;;;;;;5082036;28;20040;-66
2021/04/17 03:12:19;;;;;;;15.95;8.38;;;;;;;;;;5082715;28;20053;-67
2021/04/17 03:14:45;;;;;;;16.85;9.73;;;;;;;;;;5082784;28;20044;-66
2021/04/17 03:17:11;;;;;;;17.77;8.93;;;;;;;;;;5081761;28;20074;-66
2021/04/17 03:19:37;;;;;;;13.65;7.80;;;;;;;;;;5084986;28;20043;-66
2021/04/17 03:22:04;;;;;;;14.77;8.88;;;;;;;;;;5081666;28;20052;-66
2021/04/17 03:24:30;;;;;;;15.30;9.43;;;;;;;;;;5083195;28;20041;-66
2021/04/17 03:26:57;;;;;;;18.73;10.30;;;;;;;;;;5080090;28;20952;-66
2021/04/17 03:29:23;;;;;;;18.58;11.63;;;;;;;;;;5080138;28;20040;-66
2021/04/17 03:31:48;;;;;;;16.60;10.02;;;;;;;;;;5082738;28;20635;-66
2021/04/17 03:34:14;;;;;;;15.75;10.00;;;;;;;;;;5081301;28;20070;-66
2021/04/17 03:36:41;;;;;;;22.63;11.55;;;;;;;;;;5082243;28;20123;-66
2021/04/17 03:39:07;;;;;;;18.27;10.65;;;;;;;;;;5083541;28;20044;-67
2021/04/17 03:41:32;;;;;;;19.13;10.95;;;;;;;;;;5081572;28;20051;-66
2021/04/17 03:44:00;;;;;;;20.73;11.68;;;;;;;;;;5080819;28;20479;-66
2021/04/17 03:46:26;;;;;;;15.93;9.93;;;;;;;;;;5081317;28;20048;-66
2021/04/17 03:48:52;;;;;;;19.27;10.63;;;;;;;;;;5077428;28;20044;-66
2021/04/17 03:51:18;;;;;;;22.13;10.88;;;;;;;;;;5080305;28;20581;-66
2021/04/17 03:53:44;;;;;;;18.58;11.57;;;;;;;;;;5083997;28;20464;-66
2021/04/17 03:56:10;;;;;;;20.67;11.75;;;;;;;;;;5081932;28;20135;-66
2021/04/17 03:58:37;;;;;;;20.42;12.25;;;;;;;;;;5078407;28;20421;-66
2021/04/17 04:01:04;;;;;;;19.25;11.60;;;;;;;;;;5082565;28;20044;-66
2021/04/17 04:03:30;;;;;;;20.95;10.85;;;;;;;;;;5085079;28;20044;-66
2021/04/17 04:05:56;;;;;;;18.35;11.00;;;;;;;;;;5080093;28;20083;-66
2021/04/17 04:08:22;;;;;;;16.80;11.15;;;;;;;;;;5078827;28;20040;-66
2021/04/17 04:10:48;;;;;;;18.30;10.93;;;;;;;;;;5083489;28;20048;-66
2021/04/17 04:13:14;;;;;;;19.13;12.15;;;;;;;;;;5082804;28;20512;-66
2021/04/17 04:15:40;;;;;;;22.58;12.07;;;;;;;;;;5080212;28;20048;-66
2021/04/17 04:18:07;;;;;;;22.65;12.25;;;;;;;;;;5079391;28;20048;-66
2021/04/17 04:20:33;;;;;;;19.55;11.50;;;;;;;;;;5080124;28;20056;-66
2021/04/17 04:23:00;;;;;;;17.90;10.68;;;;;;;;;;5079918;28;20044;-66
2021/04/17 04:25:26;;;;;;;18.30;9.98;;;;;;;;;;5080302;28;20485;-66
2021/04/17 04:27:52;;;;;;;21.00;11.48;;;;;;;;;;5080600;28;20051;-66
2021/04/17 04:30:18;;;;;;;20.58;10.75;;;;;;;;;;5081645;28;20044;-66
2021/04/17 04:32:44;;;;;;;21.38;11.25;;;;;;;;;;5080211;28;20048;-66
2021/04/17 04:35:12;;;;;;;18.02;11.55;;;;;;;;;;5080918;28;20048;-66
2021/04/17 04:37:38;;;;;;;17.50;10.85;;;;;;;;;;5079386;28;20045;-67
2021/04/17 04:40:06;;;;;;;19.73;11.18;;;;;;;;;;5080351;28;20051;-66
2021/04/17 04:42:32;;;;;;;24.42;12.75;;;;;;;;;;5081486;28;20040;-66
2021/04/17 04:44:58;;;;;;;30.58;17.30;;;;;;;;;;5081344;28;20102;-66
2021/04/17 04:47:24;;;;;;;26.40;14.15;;;;;;;;;;5081451;28;20481;-66
2021/04/17 04:49:50;;;;;;;25.60;13.95;;;;;;;;;;5082245;28;20488;-66
2021/04/17 04:52:16;;;;;;;20.33;11.63;;;;;;;;;;5080453;28;20052;-66
2021/04/17 04:54:42;;;;;;;20.95;11.65;;;;;;;;;;5079336;28;20473;-66
2021/04/17 04:57:08;;;;;;;19.52;11.85;;;;;;;;;;5077507;28;20051;-66
2021/04/17 04:59:34;;;;;;;22.63;12.13;;;;;;;;;;5082649;28;20481;-66
2021/04/17 05:02:01;;;;;;;27.00;11.32;;;;;;;;;;5078066;28;20074;-66
2021/04/17 05:04:27;;;;;;;18.35;11.15;;;;;;;;;;5078393;28;20493;-66
2021/04/17 05:06:53;;;;;;;28.85;13.32;;;;;;;;;;5081320;28;20052;-66
2021/04/17 05:09:20;;;;;;;25.08;11.65;;;;;;;;;;5082255;28;20052;-66
2021/04/17 05:11:46;;;;;;;23.88;12.75;;;;;;;;;;5077958;28;20346;-66
2021/04/17 05:14:12;;;;;;;22.83;12.38;;;;;;;;;;5079426;28;20075;-66
2021/04/17 05:16:38;;;;;;;24.17;13.00;;;;;;;;;;5080766;28;20126;-66
2021/04/17 05:19:04;;;;;;;23.77;12.85;;;;;;;;;;5081854;28;20048;-66
2021/04/17 05:21:30;;;;;;;25.10;15.15;;;;;;;;;;5083201;28;20127;-67
2021/04/17 05:23:56;;;;;;;21.15;13.07;;;;;;;;;;5078915;28;20129;-66
2021/04/17 05:26:23;;;;;;;19.50;11.73;;;;;;;;;;5079388;28;20044;-66
2021/04/17 05:28:49;;;;;;;19.60;11.32;;;;;;;;;;5083363;28;20047;-65
2021/04/17 05:31:15;;;;;;;21.27;11.80;;;;;;;;;;5078539;28;20083;-65
2021/04/17 05:33:41;;;;;;;17.15;10.43;;;;;;;;;;5079972;28;20625;-66
2021/04/17 05:36:08;;;;;;;21.05;12.15;;;;;;;;;;5081519;28;20045;-66
2021/04/17 05:38:34;;;;;;;19.50;11.68;;;;;;;;;;5079218;28;20443;-66
2021/04/17 05:41:00;;;;;;;18.20;11.15;;;;;;;;;;5082978;28;20048;-65
2021/04/17 05:43:27;;;;;;;22.15;11.80;;;;;;;;;;5078983;28;20056;-65
2021/04/17 05:45:53;;;;;;;19.70;12.07;;;;;;;;;;5081269;28;20047;-66
2021/04/17 05:48:19;;;;;;;18.52;11.73;;;;;;;;;;5079964;28;20082;-65
2021/04/17 05:50:45;;;;;;;19.45;11.48;;;;;;;;;;5077699;28;20048;-66
2021/04/17 05:53:11;;;;;;;18.92;11.60;;;;;;;;;;5081374;28;20397;-66
2021/04/17 05:55:37;;;;;;;18.63;11.48;;;;;;;;;;5076015;28;20064;-65
2021/04/17 05:58:03;;;;;;;22.13;12.73;;;;;;;;;;5079568;28;20043;-66
2021/04/17 06:00:30;;;;;;;18.63;11.82;;;;;;;;;;5080297;28;20570;-65
2021/04/17 06:02:56;;;;;;;19.58;11.45;;;;;;;;;;5078750;28;20511;-65
2021/04/17 06:05:22;;;;;;;21.67;13.30;;;;;;;;;;5080275;28;20055;-65
2021/04/17 06:07:48;;;;;;;19.90;12.05;;;;;;;;;;5079673;28;20044;-65
2021/04/17 06:10:14;;;;;;;22.60;12.57;;;;;;;;;;5081883;28;20473;-65
2021/04/17 06:12:41;;;;;;;21.13;12.85;;;;;;;;;;5082671;28;20059;-66
2021/04/17 06:15:08;;;;;;;19.30;12.65;;;;;;;;;;5085420;28;20139;-65
2021/04/17 06:17:35;;;;;;;19.00;12.23;;;;;;;;;;5080527;28;20044;-65
2021/04/17 06:20:01;;;;;;;22.23;12.65;;;;;;;;;;5085008;28;20048;-66
2021/04/17 06:22:27;;;;;;;21.33;13.65;;;;;;;;;;5084331;28;20056;-65
2021/04/17 06:24:53;;;;;;;22.73;13.35;;;;;;;;;;5089356;28;20044;-65
2021/04/17 06:27:19;;;;;;;20.02;13.68;;;;;;;;;;5085076;28;20051;-65
2021/04/17 06:29:45;;;;;;;19.67;12.93;;;;;;;;;;5084380;28;20044;-66
2021/04/17 06:32:11;;;;;;;21.27;13.15;;;;;;;;;;5085095;28;20078;-66
2021/04/17 06:34:38;;;;;;;19.88;13.27;;;;;;;;;;5086520;28;20067;-66
2021/04/17 06:37:04;;;;;;;20.55;12.90;;;;;;;;;;5086104;28;20443;-66
2021/04/17 06:39:30;;;;;;;21.58;13.02;;;;;;;;;;5085990;28;20044;-66
2021/04/17 06:41:57;;;;;;;25.00;13.57;;;;;;;;;;5083783;28;20060;-66
2021/04/17 06:44:23;;;;;;;20.67;13.30;;;;;;;;;;5082159;28;20063;-66
2021/04/17 06:46:49;;;;;;;19.85;13.18;;;;;;;;;;5087779;28;20052;-66
2021/04/17 06:49:16;;;;;;;20.33;13.00;;;;;;;;;;5077621;28;20056;-66
2021/04/17 06:51:46;;;;;;;27.77;15.90;;;;;;;;;;5078432;28;20484;-66
2021/04/17 06:54:13;;;;;;;25.65;15.93;;;;;;;;;;5084992;28;20048;-66
2021/04/17 06:56:39;;;;;;;22.85;14.25;;;;;;;;;;5085253;28;20151;-66
2021/04/17 06:59:05;;;;;;;27.10;16.77;;;;;;;;;;5079238;28;20169;-66
2021/04/17 07:01:31;;;;;;;28.83;19.73;;;;;;;;;;5080132;28;20044;-66
2021/04/17 07:03:58;;;;;;;27.40;18.30;;;;;;;;;;5073879;28;20051;-66
2021/04/17 07:06:24;;;;;;;26.25;16.75;;;;;;;;;;5072534;28;20055;-66
2021/04/17 07:08:52;;;;;;;23.30;15.27;;;;;;;;;;5074863;28;20044;-66
2021/04/17 07:11:18;;;;;;;22.95;15.10;;;;;;;;;;5074224;28;20056;-66
2021/04/17 07:14:05;;;;;;;24.30;15.90;;;;;;;;;;5078088;28;20072;-65
2021/04/17 07:16:31;;;;;;;26.02;16.33;;;;;;;;;;5075663;28;20067;-66
2021/04/17 07:18:57;;;;;;;27.10;16.83;;;;;;;;;;5075886;28;20053;-66
2021/04/17 07:21:27;;;;;;;23.08;16.25;;;;;;;;;;5079990;28;20062;-66
2021/04/17 07:23:54;;;;;;;25.65;17.17;;;;;;;;;;5075292;28;20048;-66
2021/04/17 07:26:23;;;;;;;25.70;16.15;;;;;;;;;;5071444;28;20089;-66
2021/04/17 07:29:02;;;;;;;28.05;16.95;;;;;;;;;;5079596;28;20052;-66
2021/04/17 07:31:29;;;;;;;29.10;17.95;;;;;;;;;;5079141;28;20049;-66
2021/04/17 07:33:56;;;;;;;29.27;18.02;;;;;;;;;;5076292;28;20044;-66
2021/04/17 07:36:22;;;;;;;27.33;17.75;;;;;;;;;;5071155;28;20048;-66
2021/04/17 07:38:49;;;;;;;25.70;17.27;;;;;;;;;;5080184;28;20473;-65
2021/04/17 07:41:17;;;;;;;26.50;17.38;;;;;;;;;;5083156;28;20232;-66
2021/04/17 07:43:47;;;;;;;29.02;17.10;;;;;;;;;;5081034;28;20048;-67
2021/04/17 07:46:13;;;;;;;26.63;17.67;;;;;;;;;;5081324;28;20056;-65
2021/04/17 07:48:39;;;;;;;28.17;18.15;;;;;;;;;;5075103;28;20044;-65
2021/04/17 07:51:08;;;;;;;27.73;17.80;;;;;;;;;;5076662;28;20058;-66
2021/04/17 07:53:35;;;;;;;26.45;17.77;;;;;;;;;;5072339;28;20054;-66
2021/04/17 07:56:34;;;;;;;26.80;15.63;;;;;;;;;;5078760;28;20055;-65
2021/04/17 07:59:01;;;;;;;24.58;15.18;;;;;;;;;;5076398;28;20532;-66
2021/04/17 08:01:29;;;;;;;28.27;18.05;;;;;;;;;;5073376;28;20327;-66
2021/04/17 08:03:56;;;;;;;30.67;17.80;;;;;;;;;;5078620;28;20083;-66
2021/04/17 08:06:24;;;;;;;25.90;17.92;;;;;;;;;;5071050;28;20102;-66
2021/04/17 08:08:51;;;;;;;32.13;19.40;;;;;;;;;;5076073;28;20094;-65
2021/04/17 08:11:18;;;;;;;26.05;16.77;;;;;;;;;;5077518;28;20064;-67
2021/04/17 08:13:45;;;;;;;27.20;17.90;;;;;;;;;;5081732;28;20059;-66
2021/04/17 08:16:11;;;;;;;26.20;17.52;;;;;;;;;;5074636;28;20051;-67
2021/04/17 08:18:38;;;;;;;27.90;17.48;;;;;;;;;;5077541;28;20417;-66
2021/04/17 08:21:05;;;;;;;26.63;18.70;;;;;;;;;;5077868;28;20084;-65
2021/04/17 08:23:32;;;;;;;26.73;17.98;;;;;;;;;;5077714;28;20128;-66
2021/04/17 08:25:58;;;;;;;30.77;19.83;;;;;;;;;;5080213;28;20044;-66
2021/04/17 08:28:26;;;;;;;26.25;18.33;;;;;;;;;;5080679;28;20052;-66
2021/04/17 08:31:22;;;;;;;26.50;18.40;;;;;;;;;;5072974;28;20530;-66
2021/04/17 08:34:10;;;;;;;28.08;18.63;;;;;;;;;;5078445;28;20086;-66
2021/04/17 08:36:38;;;;;;;29.23;19.30;;;;;;;;;;5075411;28;20067;-66
2021/04/17 08:39:06;;;;;;;24.98;18.38;;;;;;;;;;5073151;28;20127;-66
2021/04/17 08:41:40;;;;;;;27.73;18.75;;;;;;;;;;5075336;28;20051;-64
2021/04/17 08:44:24;;;;;;;26.30;17.63;;;;;;;;;;5074692;28;20051;-65
2021/04/17 08:46:51;;;;;;;27.67;17.60;;;;;;;;;;5073874;28;20469;-65
2021/04/17 08:49:20;;;;;;;24.80;16.83;;;;;;;;;;5071731;28;20125;-66
2021/04/17 08:51:46;;;;;;;25.83;18.98;;;;;;;;;;5072513;28;20044;-66
2021/04/17 08:54:23;;;;;;;26.00;17.80;;;;;;;;;;5074327;28;20133;-66
2021/04/17 08:56:56;;;;;;;24.00;17.52;;;;;;;;;;5072574;28;20131;-66
2021/04/17 08:59:24;;;;;;;23.63;15.85;;;;;;;;;;5076993;28;20059;-66
2021/04/17 09:01:52;;;;;;;21.55;15.00;;;;;;;;;;5080330;28;20048;-66
2021/04/17 09:04:18;;;;;;;20.27;14.13;;;;;;;;;;5075055;28;20125;-66
2021/04/17 09:06:46;;;;;;;17.08;11.95;;;;;;;;;;5076625;28;20162;-66
2021/04/17 09:09:32;;;;;;;15.65;12.07;;;;;;;;;;5074074;28;20044;-67
2021/04/17 09:12:21;;;;;;;14.05;10.00;;;;;;;;;;5078036;28;20048;-68
2021/04/17 09:15:00;;;;;;;13.50;10.68;;;;;;;;;;5077278;28;20044;-68
2021/04/17 09:17:48;;;;;;;12.60;9.65;;;;;;;;;;5078935;28;20044;-66
2021/04/17 09:20:35;;;;;;;12.38;7.80;;;;;;;;;;5077321;28;20055;-67
2021/04/17 09:23:01;;;;;;;12.23;8.95;;;;;;;;;;5072791;28;20489;-68
2021/04/17 09:25:42;;;;;;;9.80;8.13;;;;;;;;;;5074848;28;20060;-66
2021/04/17 09:28:08;;;;;;;13.35;8.55;;;;;;;;;;5074980;28;20056;-67
2021/04/17 09:30:34;;;;;;;12.13;8.05;;;;;;;;;;5078310;28;20044;-67
2021/04/17 09:33:01;;;;;;;10.27;7.50;;;;;;;;;;5076639;28;20052;-66
2021/04/17 09:35:29;;;;;;;9.88;6.93;;;;;;;;;;5071749;28;20109;-64
2021/04/17 09:38:07;;;;;;;10.10;6.18;;;;;;;;;;5076403;28;20079;-66
2021/04/17 09:40:35;;;;;;;10.27;7.43;;;;;;;;;;5079133;28;20504;-66
2021/04/17 09:43:01;;;;;;;10.45;6.95;;;;;;;;;;5078949;28;20530;-65
2021/04/17 09:45:34;;;;;;;13.80;7.97;;;;;;;;;;5073848;28;20052;-65
2021/04/17 09:48:03;;;;;;;14.52;9.52;;;;;;;;;;5075418;28;20132;-66
2021/04/17 09:50:31;;;;;;;14.23;8.52;;;;;;;;;;5072496;28;20521;-67
2021/04/17 09:53:12;;;;;;;11.95;7.97;;;;;;;;;;5072011;28;20491;-65
2021/04/17 09:55:50;;;;;;;12.52;7.75;;;;;;;;;;5070503;28;20416;-66
2021/04/17 09:58:31;;;;;;;12.40;8.80;;;;;;;;;;5070833;28;20249;-65
2021/04/17 10:01:05;;;;;;;16.38;9.77;;;;;;;;;;5068231;28;20057;-65
2021/04/17 10:03:36;;;;;;;11.10;8.70;;;;;;;;;;5069663;28;20061;-67
2021/04/17 10:06:03;;;;;;;16.20;9.88;;;;;;;;;;5068630;28;20040;-65
2021/04/17 10:08:30;;;;;;;13.52;9.43;;;;;;;;;;5073540;28;20048;-65
2021/04/17 10:10:56;;;;;;;14.07;10.25;;;;;;;;;;5068989;28;20059;-64
2021/04/17 10:13:39;;;;;;;14.23;10.00;;;;;;;;;;5071802;28;20482;-64
2021/04/17 10:16:06;;;;;;;11.10;9.32;;;;;;;;;;5070481;28;20131;-65
2021/04/17 10:18:34;;;;;;;14.30;10.68;;;;;;;;;;5072290;28;20036;-64
2021/04/17 10:21:00;;;;;;;13.98;10.27;;;;;;;;;;5071706;28;20051;-66
2021/04/17 10:23:26;;;;;;;17.20;10.63;;;;;;;;;;5071645;28;20055;-65
2021/04/17 10:25:52;;;;;;;13.00;9.85;;;;;;;;;;5081056;28;20072;-65
2021/04/17 10:28:20;;;;;;;14.13;9.50;;;;;;;;;;5080492;28;20058;-65
2021/04/17 10:30:49;;;;;;;13.57;9.27;;;;;;;;;;5075247;28;20056;-64
2021/04/17 10:33:16;;;;;;;14.57;10.10;;;;;;;;;;5078771;28;20071;-65
2021/04/17 10:35:44;;;;;;;11.60;9.13;;;;;;;;;;5069402;28;20040;-65
2021/04/17 10:38:10;;;;;;;11.88;9.23;;;;;;;;;;5074315;28;20052;-66
2021/04/17 10:40:36;;;;;;;12.98;9.05;;;;;;;;;;5075661;28;20406;-67
2021/04/17 10:43:05;;;;;;;13.02;9.43;;;;;;;;;;5068852;28;20059;-66
2021/04/17 10:45:40;;;;;;;13.80;9.35;;;;;;;;;;5069267;28;20052;-67
2021/04/17 10:48:09;;;;;;;13.50;9.13;;;;;;;;;;5070195;28;20474;-66
2021/04/17 10:50:37;;;;;;;15.15;10.07;;;;;;;;;;5074968;28;20525;-64
2021/04/17 10:53:06;;;;;;;11.05;8.98;;;;;;;;;;5071841;28;20089;-65
2021/04/17 10:55:35;;;;;;;12.45;9.63;;;;;;;;;;5069881;28;20474;-64
2021/04/17 10:58:01;;;;;;;10.80;9.10;;;;;;;;;;5070423;28;20049;-65
2021/04/17 11:00:28;;;;;;;12.80;10.20;;;;;;;;;;5076401;28;20036;-64
2021/04/17 11:02:54;;;;;;;13.85;10.20;;;;;;;;;;5074172;28;20111;-65
2021/04/17 11:05:20;;;;;;;14.50;10.30;;;;;;;;;;5074897;28;20079;-65
2021/04/17 11:07:46;;;;;;;12.63;10.43;;;;;;;;;;5078690;28;20048;-66
2021/04/17 11:10:13;;;;;;;14.75;10.63;;;;;;;;;;5076056;28;20045;-64
2021/04/17 11:12:39;;;;;;;13.18;10.63;;;;;;;;;;5077533;28;20048;-66
2021/04/17 11:15:13;;;;;;;14.73;10.20;;;;;;;;;;5079829;28;20124;-65
2021/04/17 11:17:39;;;;;;;13.18;10.07;;;;;;;;;;5079323;28;20074;-65
2021/04/17 11:20:19;;;;;;;11.52;9.23;;;;;;;;;;5083578;28;20044;-64
2021/04/17 11:22:45;;;;;;;15.70;10.52;;;;;;;;;;5077779;28;20090;-64
2021/04/17 11:25:12;;;;;;;13.35;10.35;;;;;;;;;;5080127;28;20059;-64
2021/04/17 11:27:39;;;;;;;15.80;11.10;;;;;;;;;;5075817;28;20040;-64
2021/04/17 11:30:07;;;;;;;13.90;9.25;;;;;;;;;;5083413;28;20044;-64
2021/04/17 11:32:33;;;;;;;11.52;8.95;;;;;;;;;;5076477;28;20082;-64
2021/04/17 11:34:59;;;;;;;11.52;8.55;;;;;;;;;;5075874;28;20044;-64
2021/04/17 11:37:29;;;;;;;13.55;9.75;;;;;;;;;;5082602;28;20079;-64
2021/04/17 11:39:56;;;;;;;15.02;10.98;;;;;;;;;;5083304;28;20054;-64
2021/04/17 11:42:22;;;;;;;13.18;9.13;;;;;;;;;;5081756;28;20058;-64
2021/04/17 11:44:49;;;;;;;12.48;8.70;;;;;;;;;;5083549;28;20048;-64
2021/04/17 11:47:15;;;;;;;12.73;9.05;;;;;;;;;;5081435;28;20051;-67
2021/04/17 11:49:41;;;;;;;13.23;9.63;;;;;;;;;;5080322;28;20439;-66
2021/04/17 11:52:07;;;;;;;15.07;9.90;;;;;;;;;;5081763;28;20105;-68
2021/04/17 11:54:34;;;;;;;14.95;9.68;;;;;;;;;;5081677;28;20058;-66
2021/04/17 11:57:00;;;;;;;14.15;9.43;;;;;;;;;;5080496;28;20041;-67
2021/04/17 11:59:27;;;;;;;14.15;10.73;;;;;;;;;;5083931;28;20046;-66
2021/04/17 12:01:54;;;;;;;16.52;10.30;;;;;;;;;;5082876;28;20165;-65
2021/04/17 12:04:20;;;;;;;13.50;9.23;;;;;;;;;;5083252;28;20412;-65
2021/04/17 12:06:50;;;;;;;12.32;9.05;;;;;;;;;;5081666;28;20071;-66
2021/04/17 12:09:17;;;;;;;16.50;9.63;;;;;;;;;;5080309;28;20040;-67
2021/04/17 12:11:43;;;;;;;11.70;9.27;;;;;;;;;;5079694;28;20048;-65
2021/04/17 12:14:09;;;;;;;11.02;8.45;;;;;;;;;;5082287;28;20124;-65
2021/04/17 12:16:35;;;;;;;11.88;8.23;;;;;;;;;;5081061;28;20434;-65
2021/04/17 12:19:02;;;;;;;12.40;9.02;;;;;;;;;;5079621;28;20463;-65
2021/04/17 12:21:28;;;;;;;11.77;8.50;;;;;;;;;;5081238;28;20102;-64
2021/04/17 12:23:54;;;;;;;12.02;8.48;;;;;;;;;;5082037;28;20043;-64
2021/04/17 12:26:20;;;;;;;11.38;8.45;;;;;;;;;;5081241;28;20043;-65
2021/04/17 12:28:46;;;;;;;12.00;8.32;;;;;;;;;;5082802;28;20102;-65
2021/04/17 12:31:12;;;;;;;12.73;8.85;;;;;;;;;;5080776;28;20072;-67
2021/04/17 12:33:38;;;;;;;10.90;8.15;;;;;;;;;;5083988;28;20075;-67
2021/04/17 12:36:06;;;;;;;13.73;8.55;;;;;;;;;;5082149;28;20048;-65
2021/04/17 12:38:32;;;;;;;9.85;7.63;;;;;;;;;;5078577;28;20044;-65
2021/04/17 12:40:58;;;;;;;10.98;8.30;;;;;;;;;;5081636;28;20048;-65
2021/04/17 12:43:24;;;;;;;12.15;8.68;;;;;;;;;;5083181;28;20062;-65
2021/04/17 12:45:50;;;;;;;13.80;9.05;;;;;;;;;;5084470;28;20044;-66
2021/04/17 12:48:17;;;;;;;12.32;9.13;;;;;;;;;;5079590;28;20056;-65
2021/04/17 12:50:43;;;;;;;9.70;7.82;;;;;;;;;;5077882;28;20048;-65
2021/04/17 12:53:10;;;;;;;11.45;8.60;;;;;;;;;;5080638;28;20174;-65
2021/04/17 12:55:36;;;;;;;12.43;8.30;;;;;;;;;;5081376;28;20048;-65
2021/04/17 12:58:02;;;;;;;12.45;8.73;;;;;;;;;;5080467;28;20048;-65
2021/04/17 13:00:30;;;;;;;11.00;7.85;;;;;;;;;;5079023;28;20037;-65
2021/04/17 13:02:56;;;;;;;10.57;7.93;;;;;;;;;;5084191;28;20571;-65
2021/04/17 13:05:22;;;;;;;12.13;8.85;;;;;;;;;;5079502;28;20045;-65
2021/04/17 13:07:48;;;;;;;12.57;7.93;;;;;;;;;;5079061;28;20081;-65
2021/04/17 13:10:16;;;;;;;10.98;8.18;;;;;;;;;;5076597;28;20253;-64
2021/04/17 13:12:42;;;;;;;9.65;7.55;;;;;;;;;;5070844;28;20051;-68
2021/04/17 13:15:09;;;;;;;11.38;8.60;;;;;;;;;;5078910;28;20052;-65
2021/04/17 13:17:35;;;;;;;12.07;8.60;;;;;;;;;;5081810;28;20439;-66
2021/04/17 13:20:01;;;;;;;11.73;8.55;;;;;;;;;;5080191;28;20127;-65
2021/04/17 13:22:27;;;;;;;11.00;7.82;;;;;;;;;;5080881;28;20052;-66
2021/04/17 13:24:55;;;;;;;9.65;7.82;;;;;;;;;;5082413;28;20465;-66
2021/04/17 13:27:22;;;;;;;11.40;7.35;;;;;;;;;;5075485;28;20135;-66
2021/04/17 13:29:48;;;;;;;11.20;8.95;;;;;;;;;;5072934;28;20412;-66
2021/04/17 13:32:14;;;;;;;12.35;7.60;;;;;;;;;;5072707;28;20056;-66
2021/04/17 13:34:41;;;;;;;10.82;8.15;;;;;;;;;;5078606;28;20080;-67
2021/04/17 13:37:07;;;;;;;11.25;8.10;;;;;;;;;;5069332;28;20092;-65
2021/04/17 13:39:33;;;;;;;14.00;8.10;;;;;;;;;;5069210;28;20062;-66
2021/04/17 13:41:59;;;;;;;12.35;8.35;;;;;;;;;;5069936;28;20171;-66
2021/04/17 13:44:26;;;;;;;11.38;8.45;;;;;;;;;;5070773;28;20583;-65
2021/04/17 13:46:52;;;;;;;13.32;9.05;;;;;;;;;;5072213;28;20048;-67
2021/04/17 13:49:18;;;;;;;10.10;7.95;;;;;;;;;;5076914;28;20117;-65
2021/04/17 13:51:44;;;;;;;9.68;7.82;;;;;;;;;;5077159;28;20056;-65
2021/04/17 13:54:10;;;;;;;11.93;8.05;;;;;;;;;;5075783;28;20573;-66
2021/04/17 13:56:36;;;;;;;11.82;8.00;;;;;;;;;;5071930;28;20056;-66
2021/04/17 13:59:02;;;;;;;10.07;8.68;;;;;;;;;;5071801;28;20044;-65
2021/04/17 14:01:29;;;;;;;12.43;7.93;;;;;;;;;;5079046;28;20048;-65
2021/04/17 14:03:55;;;;;;;12.30;7.80;;;;;;;;;;5077237;28;20052;-66
2021/04/17 14:06:21;;;;;;;11.73;8.07;;;;;;;;;;5080415;28;20067;-66
2021/04/17 14:08:47;;;;;;;9.85;7.60;;;;;;;;;;5082328;28;20076;-69
2021/04/17 14:11:13;;;;;;;10.48;7.10;;;;;;;;;;5081575;28;20059;-65
2021/04/17 14:13:39;;;;;;;9.60;6.75;;;;;;;;;;5080528;28;20089;-65
2021/04/17 14:16:06;;;;;;;8.63;6.53;;;;;;;;;;5077184;28;20078;-69
2021/04/17 14:18:32;;;;;;;9.68;7.65;;;;;;;;;;5069229;28;20052;-66
2021/04/17 14:20:59;;;;;;;10.13;7.88;;;;;;;;;;5075159;28;20072;-68
2021/04/17 14:23:25;;;;;;;9.90;7.45;;;;;;;;;;5068443;28;20055;-66
2021/04/17 14:25:51;;;;;;;11.20;8.48;;;;;;;;;;5069328;28;20044;-65